sensor_id;sensor_type;location;lat;lon;timestamp;P1;durP1;ratioP1;P2;durP2;ratioP2
11034;SDS011;5571;48.110;-1.706;2023-05-07T00:00:27;10.20;;;3.73;;
11034;SDS011;5571;48.110;-1.706;2023-05-07T00:02:53;15.63;;;4.53;;
11034;SDS011;5571;48.110;-1.706;2023-05-07T00:05:19;13.10;;;3.80;;
11034;SDS011;5571;48.110;-1.706;2023-05-07T00:07:44;9.97;;;3.90;;
11034;SDS011;5571;48.110;-1.706;2023-05-07T00:10:10;16.37;;;3.70;;
11034;SDS011;5571;48.110;-1.706;2023-05-07T00:12:37;11.50;;;4.70;;
11034;SDS011;5571;48.110;-1.706;2023-05-07T00:15:03;15.30;;;5.57;;
11034;SDS011;5571;48.110;-1.706;2023-05-07T00:17:29;10.90;;;4.00;;
11034;SDS011;5571;48.110;-1.706;2023-05-07T00:19:55;10.53;;;3.90;;
11034;SDS011;5571;48.110;-1.706;2023-05-07T00:22:21;12.43;;;4.80;;
11034;SDS011;5571;48.110;-1.706;2023-05-07T00:24:46;12.80;;;4.10;;
11034;SDS011;5571;48.110;-1.706;2023-05-07T00:27:12;11.37;;;3.83;;
11034;SDS011;5571;48.110;-1.706;2023-05-07T00:29:38;13.90;;;4.60;;
11034;SDS011;5571;48.110;-1.706;2023-05-07T00:32:04;10.50;;;4.07;;
11034;SDS011;5571;48.110;-1.706;2023-05-07T00:34:30;11.83;;;4.10;;
11034;SDS011;5571;48.110;-1.706;2023-05-07T00:36:55;11.77;;;4.07;;
11034;SDS011;5571;48.110;-1.706;2023-05-07T00:39:21;9.17;;;3.83;;
11034;SDS011;5571;48.110;-1.706;2023-05-07T00:41:46;12.97;;;3.47;;
11034;SDS011;5571;48.110;-1.706;2023-05-07T00:44:12;16.87;;;4.00;;
11034;SDS011;5571;48.110;-1.706;2023-05-07T00:46:39;12.20;;;3.73;;
11034;SDS011;5571;48.110;-1.706;2023-05-07T00:49:05;12.37;;;3.60;;
11034;SDS011;5571;48.110;-1.706;2023-05-07T00:51:31;11.30;;;3.90;;
11034;SDS011;5571;48.110;-1.706;2023-05-07T00:54:00;15.60;;;4.17;;
11034;SDS011;5571;48.110;-1.706;2023-05-07T00:56:27;13.70;;;4.10;;
11034;SDS011;5571;48.110;-1.706;2023-05-07T00:58:53;9.07;;;3.50;;
11034;SDS011;5571;48.110;-1.706;2023-05-07T01:01:19;12.60;;;4.07;;
11034;SDS011;5571;48.110;-1.706;2023-05-07T01:03:45;13.73;;;4.10;;
11034;SDS011;5571;48.110;-1.706;2023-05-07T01:06:10;15.90;;;4.00;;
11034;SDS011;5571;48.110;-1.706;2023-05-07T01:08:38;12.73;;;3.83;;
11034;SDS011;5571;48.110;-1.706;2023-05-07T01:11:04;10.57;;;4.07;;
11034;SDS011;5571;48.110;-1.706;2023-05-07T01:13:31;14.67;;;4.10;;
11034;SDS011;5571;48.110;-1.706;2023-05-07T01:15:57;16.83;;;4.40;;
11034;SDS011;5571;48.110;-1.706;2023-05-07T01:18:23;8.93;;;4.03;;
11034;SDS011;5571;48.110;-1.706;2023-05-07T01:20:48;11.27;;;4.30;;
11034;SDS011;5571;48.110;-1.706;2023-05-07T01:23:14;13.13;;;4.10;;
11034;SDS011;5571;48.110;-1.706;2023-05-07T01:25:40;17.00;;;4.33;;
11034;SDS011;5571;48.110;-1.706;2023-05-07T01:28:06;11.50;;;4.23;;
11034;SDS011;5571;48.110;-1.706;2023-05-07T01:30:32;12.03;;;4.17;;
11034;SDS011;5571;48.110;-1.706;2023-05-07T01:33:03;9.53;;;4.20;;
11034;SDS011;5571;48.110;-1.706;2023-05-07T01:35:35;13.10;;;4.33;;
11034;SDS011;5571;48.110;-1.706;2023-05-07T01:38:03;12.53;;;3.97;;
11034;SDS011;5571;48.110;-1.706;2023-05-07T01:40:31;13.63;;;4.40;;
11034;SDS011;5571;48.110;-1.706;2023-05-07T01:42:56;12.43;;;4.07;;
11034;SDS011;5571;48.110;-1.706;2023-05-07T01:45:22;14.43;;;4.30;;
11034;SDS011;5571;48.110;-1.706;2023-05-07T01:47:49;14.17;;;5.00;;
11034;SDS011;5571;48.110;-1.706;2023-05-07T01:50:15;13.90;;;4.23;;
11034;SDS011;5571;48.110;-1.706;2023-05-07T01:52:43;15.13;;;4.47;;
11034;SDS011;5571;48.110;-1.706;2023-05-07T01:55:09;12.13;;;4.20;;
11034;SDS011;5571;48.110;-1.706;2023-05-07T01:57:35;16.10;;;4.90;;
11034;SDS011;5571;48.110;-1.706;2023-05-07T02:00:00;11.03;;;4.40;;
11034;SDS011;5571;48.110;-1.706;2023-05-07T02:02:27;12.53;;;4.43;;
11034;SDS011;5571;48.110;-1.706;2023-05-07T02:04:53;9.30;;;4.07;;
11034;SDS011;5571;48.110;-1.706;2023-05-07T02:07:19;17.90;;;4.50;;
11034;SDS011;5571;48.110;-1.706;2023-05-07T02:09:44;15.83;;;4.70;;
11034;SDS011;5571;48.110;-1.706;2023-05-07T02:12:10;12.10;;;4.70;;
11034;SDS011;5571;48.110;-1.706;2023-05-07T02:14:36;16.57;;;4.70;;
11034;SDS011;5571;48.110;-1.706;2023-05-07T02:17:01;12.43;;;4.20;;
11034;SDS011;5571;48.110;-1.706;2023-05-07T02:19:27;9.77;;;4.10;;
11034;SDS011;5571;48.110;-1.706;2023-05-07T02:21:52;14.40;;;4.67;;
11034;SDS011;5571;48.110;-1.706;2023-05-07T02:24:18;17.83;;;5.00;;
11034;SDS011;5571;48.110;-1.706;2023-05-07T02:26:43;17.70;;;4.90;;
11034;SDS011;5571;48.110;-1.706;2023-05-07T02:29:09;12.80;;;4.40;;
11034;SDS011;5571;48.110;-1.706;2023-05-07T02:31:35;18.27;;;5.37;;
11034;SDS011;5571;48.110;-1.706;2023-05-07T02:34:00;18.73;;;5.00;;
11034;SDS011;5571;48.110;-1.706;2023-05-07T02:36:26;14.70;;;4.80;;
11034;SDS011;5571;48.110;-1.706;2023-05-07T02:38:52;16.73;;;5.10;;
11034;SDS011;5571;48.110;-1.706;2023-05-07T02:41:17;16.07;;;4.80;;
11034;SDS011;5571;48.110;-1.706;2023-05-07T02:43:43;13.10;;;4.60;;
11034;SDS011;5571;48.110;-1.706;2023-05-07T02:46:09;12.43;;;4.57;;
11034;SDS011;5571;48.110;-1.706;2023-05-07T02:48:34;12.67;;;4.93;;
11034;SDS011;5571;48.110;-1.706;2023-05-07T02:51:00;17.63;;;5.67;;
11034;SDS011;5571;48.110;-1.706;2023-05-07T02:53:26;16.43;;;4.97;;
11034;SDS011;5571;48.110;-1.706;2023-05-07T02:55:53;16.10;;;4.80;;
11034;SDS011;5571;48.110;-1.706;2023-05-07T02:58:19;13.33;;;4.80;;
11034;SDS011;5571;48.110;-1.706;2023-05-07T03:00:45;17.23;;;5.00;;
11034;SDS011;5571;48.110;-1.706;2023-05-07T03:03:10;14.70;;;4.90;;
11034;SDS011;5571;48.110;-1.706;2023-05-07T03:05:36;16.60;;;5.23;;
11034;SDS011;5571;48.110;-1.706;2023-05-07T03:08:02;16.87;;;5.20;;
11034;SDS011;5571;48.110;-1.706;2023-05-07T03:10:29;14.83;;;5.13;;
11034;SDS011;5571;48.110;-1.706;2023-05-07T03:12:54;13.63;;;4.93;;
11034;SDS011;5571;48.110;-1.706;2023-05-07T03:15:20;14.73;;;4.67;;
11034;SDS011;5571;48.110;-1.706;2023-05-07T03:17:46;15.80;;;4.70;;
11034;SDS011;5571;48.110;-1.706;2023-05-07T03:20:15;14.13;;;5.10;;
11034;SDS011;5571;48.110;-1.706;2023-05-07T03:22:41;11.50;;;4.90;;
11034;SDS011;5571;48.110;-1.706;2023-05-07T03:25:07;18.57;;;5.40;;
11034;SDS011;5571;48.110;-1.706;2023-05-07T03:27:33;12.00;;;5.03;;
11034;SDS011;5571;48.110;-1.706;2023-05-07T03:29:59;16.70;;;5.40;;
11034;SDS011;5571;48.110;-1.706;2023-05-07T03:32:25;13.53;;;5.43;;
11034;SDS011;5571;48.110;-1.706;2023-05-07T03:34:51;16.27;;;5.30;;
11034;SDS011;5571;48.110;-1.706;2023-05-07T03:37:17;14.97;;;4.73;;
11034;SDS011;5571;48.110;-1.706;2023-05-07T03:39:43;15.50;;;5.07;;
11034;SDS011;5571;48.110;-1.706;2023-05-07T03:42:10;19.13;;;5.63;;
11034;SDS011;5571;48.110;-1.706;2023-05-07T03:44:35;20.00;;;5.30;;
11034;SDS011;5571;48.110;-1.706;2023-05-07T03:47:01;20.00;;;4.93;;
11034;SDS011;5571;48.110;-1.706;2023-05-07T03:49:27;16.57;;;5.33;;
11034;SDS011;5571;48.110;-1.706;2023-05-07T03:51:53;12.63;;;5.23;;
11034;SDS011;5571;48.110;-1.706;2023-05-07T03:54:19;12.30;;;4.97;;
11034;SDS011;5571;48.110;-1.706;2023-05-07T03:56:44;12.40;;;4.80;;
11034;SDS011;5571;48.110;-1.706;2023-05-07T03:59:10;16.07;;;5.00;;
11034;SDS011;5571;48.110;-1.706;2023-05-07T04:01:36;15.40;;;4.93;;
11034;SDS011;5571;48.110;-1.706;2023-05-07T04:04:02;13.07;;;5.03;;
11034;SDS011;5571;48.110;-1.706;2023-05-07T04:06:29;15.23;;;4.87;;
11034;SDS011;5571;48.110;-1.706;2023-05-07T04:08:55;15.83;;;4.90;;
11034;SDS011;5571;48.110;-1.706;2023-05-07T04:11:20;15.90;;;4.43;;
11034;SDS011;5571;48.110;-1.706;2023-05-07T04:13:46;15.07;;;5.00;;
11034;SDS011;5571;48.110;-1.706;2023-05-07T04:16:12;14.50;;;5.10;;
11034;SDS011;5571;48.110;-1.706;2023-05-07T04:18:37;11.10;;;4.30;;
11034;SDS011;5571;48.110;-1.706;2023-05-07T04:21:03;9.67;;;4.50;;
11034;SDS011;5571;48.110;-1.706;2023-05-07T04:23:29;9.53;;;4.30;;
11034;SDS011;5571;48.110;-1.706;2023-05-07T04:25:55;10.43;;;4.10;;
11034;SDS011;5571;48.110;-1.706;2023-05-07T04:28:21;12.47;;;4.37;;
11034;SDS011;5571;48.110;-1.706;2023-05-07T04:30:46;10.73;;;4.50;;
11034;SDS011;5571;48.110;-1.706;2023-05-07T04:33:13;13.33;;;4.90;;
11034;SDS011;5571;48.110;-1.706;2023-05-07T04:35:41;9.30;;;4.30;;
11034;SDS011;5571;48.110;-1.706;2023-05-07T04:38:07;10.47;;;4.33;;
11034;SDS011;5571;48.110;-1.706;2023-05-07T04:40:33;9.87;;;4.13;;
11034;SDS011;5571;48.110;-1.706;2023-05-07T04:43:00;8.80;;;4.30;;
11034;SDS011;5571;48.110;-1.706;2023-05-07T04:45:26;14.53;;;4.13;;
11034;SDS011;5571;48.110;-1.706;2023-05-07T04:47:51;12.80;;;4.47;;
11034;SDS011;5571;48.110;-1.706;2023-05-07T04:50:17;7.67;;;4.30;;
11034;SDS011;5571;48.110;-1.706;2023-05-07T04:52:44;9.80;;;4.53;;
11034;SDS011;5571;48.110;-1.706;2023-05-07T04:55:10;12.53;;;4.40;;
11034;SDS011;5571;48.110;-1.706;2023-05-07T04:57:35;9.63;;;4.40;;
11034;SDS011;5571;48.110;-1.706;2023-05-07T05:00:02;9.93;;;4.10;;
11034;SDS011;5571;48.110;-1.706;2023-05-07T05:02:29;9.10;;;4.30;;
11034;SDS011;5571;48.110;-1.706;2023-05-07T05:04:54;10.60;;;3.83;;
11034;SDS011;5571;48.110;-1.706;2023-05-07T05:07:20;13.40;;;4.20;;
11034;SDS011;5571;48.110;-1.706;2023-05-07T05:09:46;4.90;;;3.73;;
11034;SDS011;5571;48.110;-1.706;2023-05-07T05:12:11;8.10;;;4.00;;
11034;SDS011;5571;48.110;-1.706;2023-05-07T05:14:37;9.83;;;3.97;;
11034;SDS011;5571;48.110;-1.706;2023-05-07T05:17:02;8.27;;;4.27;;
11034;SDS011;5571;48.110;-1.706;2023-05-07T05:19:28;5.80;;;3.83;;
11034;SDS011;5571;48.110;-1.706;2023-05-07T05:21:54;8.47;;;3.87;;
11034;SDS011;5571;48.110;-1.706;2023-05-07T05:24:20;10.60;;;4.20;;
11034;SDS011;5571;48.110;-1.706;2023-05-07T05:26:45;12.57;;;4.67;;
11034;SDS011;5571;48.110;-1.706;2023-05-07T05:29:11;7.87;;;4.17;;
11034;SDS011;5571;48.110;-1.706;2023-05-07T05:31:36;7.00;;;4.10;;
11034;SDS011;5571;48.110;-1.706;2023-05-07T05:34:02;11.13;;;4.17;;
11034;SDS011;5571;48.110;-1.706;2023-05-07T05:36:28;12.03;;;4.37;;
11034;SDS011;5571;48.110;-1.706;2023-05-07T05:38:54;5.80;;;4.33;;
11034;SDS011;5571;48.110;-1.706;2023-05-07T05:41:20;6.47;;;4.00;;
11034;SDS011;5571;48.110;-1.706;2023-05-07T05:43:46;7.90;;;4.40;;
11034;SDS011;5571;48.110;-1.706;2023-05-07T05:46:12;8.70;;;3.60;;
11034;SDS011;5571;48.110;-1.706;2023-05-07T05:48:37;8.80;;;4.00;;
11034;SDS011;5571;48.110;-1.706;2023-05-07T05:51:03;6.57;;;3.83;;
11034;SDS011;5571;48.110;-1.706;2023-05-07T05:53:29;7.53;;;3.80;;
11034;SDS011;5571;48.110;-1.706;2023-05-07T05:55:54;8.50;;;3.73;;
11034;SDS011;5571;48.110;-1.706;2023-05-07T05:58:20;7.77;;;3.77;;
11034;SDS011;5571;48.110;-1.706;2023-05-07T06:00:46;9.23;;;4.33;;
11034;SDS011;5571;48.110;-1.706;2023-05-07T06:03:13;5.70;;;3.40;;
11034;SDS011;5571;48.110;-1.706;2023-05-07T06:05:39;5.27;;;3.60;;
11034;SDS011;5571;48.110;-1.706;2023-05-07T06:08:04;10.03;;;4.20;;
11034;SDS011;5571;48.110;-1.706;2023-05-07T06:10:30;7.27;;;3.80;;
11034;SDS011;5571;48.110;-1.706;2023-05-07T06:12:55;6.00;;;3.87;;
11034;SDS011;5571;48.110;-1.706;2023-05-07T06:15:21;5.97;;;4.10;;
11034;SDS011;5571;48.110;-1.706;2023-05-07T06:17:47;10.70;;;4.20;;
11034;SDS011;5571;48.110;-1.706;2023-05-07T06:20:14;6.93;;;4.00;;
11034;SDS011;5571;48.110;-1.706;2023-05-07T06:22:39;7.33;;;4.10;;
11034;SDS011;5571;48.110;-1.706;2023-05-07T06:25:05;5.37;;;4.33;;
11034;SDS011;5571;48.110;-1.706;2023-05-07T06:27:31;6.53;;;4.20;;
11034;SDS011;5571;48.110;-1.706;2023-05-07T06:29:57;7.40;;;4.20;;
11034;SDS011;5571;48.110;-1.706;2023-05-07T06:32:22;9.60;;;4.30;;
11034;SDS011;5571;48.110;-1.706;2023-05-07T06:34:48;13.30;;;5.13;;
11034;SDS011;5571;48.110;-1.706;2023-05-07T06:37:13;7.43;;;4.20;;
11034;SDS011;5571;48.110;-1.706;2023-05-07T06:39:39;10.23;;;4.43;;
11034;SDS011;5571;48.110;-1.706;2023-05-07T06:42:05;8.07;;;4.17;;
11034;SDS011;5571;48.110;-1.706;2023-05-07T06:44:31;7.57;;;4.47;;
11034;SDS011;5571;48.110;-1.706;2023-05-07T06:46:57;6.63;;;4.57;;
11034;SDS011;5571;48.110;-1.706;2023-05-07T06:49:22;5.57;;;4.40;;
11034;SDS011;5571;48.110;-1.706;2023-05-07T06:51:48;6.27;;;4.40;;
11034;SDS011;5571;48.110;-1.706;2023-05-07T06:54:13;7.13;;;4.47;;
11034;SDS011;5571;48.110;-1.706;2023-05-07T06:56:39;8.17;;;4.50;;
11034;SDS011;5571;48.110;-1.706;2023-05-07T06:59:05;6.63;;;4.37;;
11034;SDS011;5571;48.110;-1.706;2023-05-07T07:01:31;6.17;;;4.10;;
11034;SDS011;5571;48.110;-1.706;2023-05-07T07:03:57;5.87;;;3.43;;
11034;SDS011;5571;48.110;-1.706;2023-05-07T07:06:24;5.40;;;3.67;;
11034;SDS011;5571;48.110;-1.706;2023-05-07T07:08:50;4.33;;;3.63;;
11034;SDS011;5571;48.110;-1.706;2023-05-07T07:11:16;3.77;;;3.40;;
11034;SDS011;5571;48.110;-1.706;2023-05-07T07:13:41;4.03;;;3.70;;
11034;SDS011;5571;48.110;-1.706;2023-05-07T07:16:08;5.73;;;4.63;;
11034;SDS011;5571;48.110;-1.706;2023-05-07T07:18:33;6.67;;;4.97;;
11034;SDS011;5571;48.110;-1.706;2023-05-07T07:20:59;5.90;;;5.03;;
11034;SDS011;5571;48.110;-1.706;2023-05-07T07:23:24;5.53;;;4.93;;
11034;SDS011;5571;48.110;-1.706;2023-05-07T07:25:50;7.40;;;5.50;;
11034;SDS011;5571;48.110;-1.706;2023-05-07T07:28:16;6.00;;;5.40;;
11034;SDS011;5571;48.110;-1.706;2023-05-07T07:30:42;7.43;;;5.87;;
11034;SDS011;5571;48.110;-1.706;2023-05-07T07:33:08;7.23;;;5.90;;
11034;SDS011;5571;48.110;-1.706;2023-05-07T07:35:33;7.63;;;5.10;;
11034;SDS011;5571;48.110;-1.706;2023-05-07T07:37:59;8.33;;;5.63;;
11034;SDS011;5571;48.110;-1.706;2023-05-07T07:40:25;6.70;;;6.00;;
11034;SDS011;5571;48.110;-1.706;2023-05-07T07:42:51;8.77;;;7.17;;
11034;SDS011;5571;48.110;-1.706;2023-05-07T07:45:17;12.53;;;7.40;;
11034;SDS011;5571;48.110;-1.706;2023-05-07T07:47:43;10.80;;;7.43;;
11034;SDS011;5571;48.110;-1.706;2023-05-07T07:50:08;14.23;;;7.77;;
11034;SDS011;5571;48.110;-1.706;2023-05-07T07:52:34;9.77;;;7.13;;
11034;SDS011;5571;48.110;-1.706;2023-05-07T07:55:00;10.33;;;7.33;;
11034;SDS011;5571;48.110;-1.706;2023-05-07T07:57:26;10.20;;;6.90;;
11034;SDS011;5571;48.110;-1.706;2023-05-07T07:59:52;10.97;;;7.33;;
11034;SDS011;5571;48.110;-1.706;2023-05-07T08:02:18;9.70;;;6.80;;
11034;SDS011;5571;48.110;-1.706;2023-05-07T08:04:43;10.07;;;6.87;;
11034;SDS011;5571;48.110;-1.706;2023-05-07T08:07:09;7.87;;;6.70;;
11034;SDS011;5571;48.110;-1.706;2023-05-07T08:09:37;8.17;;;6.53;;
11034;SDS011;5571;48.110;-1.706;2023-05-07T08:12:03;9.50;;;6.10;;
11034;SDS011;5571;48.110;-1.706;2023-05-07T08:14:30;7.77;;;5.63;;
11034;SDS011;5571;48.110;-1.706;2023-05-07T08:16:55;7.63;;;5.77;;
11034;SDS011;5571;48.110;-1.706;2023-05-07T08:19:21;6.57;;;5.60;;
11034;SDS011;5571;48.110;-1.706;2023-05-07T08:21:47;5.60;;;4.90;;
11034;SDS011;5571;48.110;-1.706;2023-05-07T08:24:13;5.23;;;4.60;;
11034;SDS011;5571;48.110;-1.706;2023-05-07T08:26:39;6.60;;;5.20;;
11034;SDS011;5571;48.110;-1.706;2023-05-07T08:29:06;6.83;;;5.10;;
11034;SDS011;5571;48.110;-1.706;2023-05-07T08:31:31;5.30;;;4.80;;
11034;SDS011;5571;48.110;-1.706;2023-05-07T08:33:57;6.67;;;5.30;;
11034;SDS011;5571;48.110;-1.706;2023-05-07T08:36:25;6.00;;;4.87;;
11034;SDS011;5571;48.110;-1.706;2023-05-07T08:38:51;6.63;;;4.97;;
11034;SDS011;5571;48.110;-1.706;2023-05-07T08:41:17;10.07;;;5.17;;
11034;SDS011;5571;48.110;-1.706;2023-05-07T08:43:45;5.83;;;4.80;;
11034;SDS011;5571;48.110;-1.706;2023-05-07T08:46:15;6.72;;;5.15;;
11034;SDS011;5571;48.110;-1.706;2023-05-07T08:48:43;5.05;;;4.55;;
11034;SDS011;5571;48.110;-1.706;2023-05-07T08:51:12;6.00;;;5.20;;
11034;SDS011;5571;48.110;-1.706;2023-05-07T08:53:40;12.02;;;5.38;;
11034;SDS011;5571;48.110;-1.706;2023-05-07T08:56:07;5.40;;;4.32;;
11034;SDS011;5571;48.110;-1.706;2023-05-07T08:58:33;5.15;;;4.65;;
11034;SDS011;5571;48.110;-1.706;2023-05-07T09:01:01;4.30;;;3.90;;
11034;SDS011;5571;48.110;-1.706;2023-05-07T09:03:32;4.47;;;4.07;;
11034;SDS011;5571;48.110;-1.706;2023-05-07T09:05:59;4.28;;;3.97;;
11034;SDS011;5571;48.110;-1.706;2023-05-07T09:08:26;5.60;;;4.63;;
11034;SDS011;5571;48.110;-1.706;2023-05-07T09:10:52;5.35;;;4.10;;
11034;SDS011;5571;48.110;-1.706;2023-05-07T09:13:18;4.80;;;4.35;;
11034;SDS011;5571;48.110;-1.706;2023-05-07T09:15:44;4.45;;;4.05;;
11034;SDS011;5571;48.110;-1.706;2023-05-07T09:18:10;4.55;;;4.15;;
11034;SDS011;5571;48.110;-1.706;2023-05-07T09:20:37;4.00;;;3.60;;
11034;SDS011;5571;48.110;-1.706;2023-05-07T09:23:03;3.80;;;3.50;;
11034;SDS011;5571;48.110;-1.706;2023-05-07T09:25:29;3.63;;;3.33;;
11034;SDS011;5571;48.110;-1.706;2023-05-07T09:27:56;3.70;;;3.40;;
11034;SDS011;5571;48.110;-1.706;2023-05-07T09:30:22;3.47;;;3.17;;
11034;SDS011;5571;48.110;-1.706;2023-05-07T09:32:48;3.40;;;3.10;;
11034;SDS011;5571;48.110;-1.706;2023-05-07T09:35:16;3.30;;;3.10;;
11034;SDS011;5571;48.110;-1.706;2023-05-07T09:37:42;4.30;;;3.35;;
11034;SDS011;5571;48.110;-1.706;2023-05-07T09:40:08;3.90;;;3.50;;
11034;SDS011;5571;48.110;-1.706;2023-05-07T09:42:49;3.85;;;3.40;;
11034;SDS011;5571;48.110;-1.706;2023-05-07T09:45:36;3.47;;;3.17;;
11034;SDS011;5571;48.110;-1.706;2023-05-07T09:48:01;3.72;;;3.42;;
11034;SDS011;5571;48.110;-1.706;2023-05-07T09:50:32;3.45;;;3.15;;
11034;SDS011;5571;48.110;-1.706;2023-05-07T09:53:01;3.20;;;2.90;;
11034;SDS011;5571;48.110;-1.706;2023-05-07T09:55:29;4.40;;;3.58;;
11034;SDS011;5571;48.110;-1.706;2023-05-07T09:57:55;4.40;;;3.92;;
11034;SDS011;5571;48.110;-1.706;2023-05-07T10:00:22;6.65;;;4.63;;
11034;SDS011;5571;48.110;-1.706;2023-05-07T10:02:49;6.25;;;5.05;;
11034;SDS011;5571;48.110;-1.706;2023-05-07T10:05:21;5.72;;;3.55;;
11034;SDS011;5571;48.110;-1.706;2023-05-07T10:07:47;3.42;;;3.15;;
11034;SDS011;5571;48.110;-1.706;2023-05-07T10:10:14;3.45;;;3.15;;
11034;SDS011;5571;48.110;-1.706;2023-05-07T10:12:40;3.30;;;2.97;;
11034;SDS011;5571;48.110;-1.706;2023-05-07T10:15:07;3.35;;;3.05;;
11034;SDS011;5571;48.110;-1.706;2023-05-07T10:17:38;6.30;;;3.42;;
11034;SDS011;5571;48.110;-1.706;2023-05-07T10:20:05;3.78;;;3.47;;
11034;SDS011;5571;48.110;-1.706;2023-05-07T10:22:37;4.35;;;3.20;;
11034;SDS011;5571;48.110;-1.706;2023-05-07T10:25:12;3.78;;;3.35;;
11034;SDS011;5571;48.110;-1.706;2023-05-07T10:27:55;3.50;;;3.20;;
11034;SDS011;5571;48.110;-1.706;2023-05-07T10:33:13;5.00;;;2.90;;
11034;SDS011;5571;48.110;-1.706;2023-05-07T10:35:42;2.92;;;2.63;;
11034;SDS011;5571;48.110;-1.706;2023-05-07T10:38:10;3.30;;;3.00;;
11034;SDS011;5571;48.110;-1.706;2023-05-07T10:40:36;2.75;;;2.50;;
11034;SDS011;5571;48.110;-1.706;2023-05-07T10:43:04;3.03;;;2.63;;
11034;SDS011;5571;48.110;-1.706;2023-05-07T10:45:30;2.65;;;2.33;;
11034;SDS011;5571;48.110;-1.706;2023-05-07T10:48:15;2.85;;;2.55;;
11034;SDS011;5571;48.110;-1.706;2023-05-07T10:50:44;2.90;;;2.70;;
11034;SDS011;5571;48.110;-1.706;2023-05-07T10:58:29;4.60;;;3.60;;
11034;SDS011;5571;48.110;-1.706;2023-05-07T11:00:59;4.20;;;3.80;;
11034;SDS011;5571;48.110;-1.706;2023-05-07T11:03:26;5.28;;;3.53;;
11034;SDS011;5571;48.110;-1.706;2023-05-07T11:12:03;6.60;;;4.40;;
11034;SDS011;5571;48.110;-1.706;2023-05-07T11:17:07;5.30;;;4.28;;
11034;SDS011;5571;48.110;-1.706;2023-05-07T11:19:50;5.00;;;4.30;;
11034;SDS011;5571;48.110;-1.706;2023-05-07T11:25:06;5.35;;;4.22;;
11034;SDS011;5571;48.110;-1.706;2023-05-07T11:27:32;8.27;;;4.20;;
11034;SDS011;5571;48.110;-1.706;2023-05-07T11:29:58;4.82;;;3.78;;
11034;SDS011;5571;48.110;-1.706;2023-05-07T11:32:26;16.98;;;14.68;;
11034;SDS011;5571;48.110;-1.706;2023-05-07T11:34:53;5.50;;;4.10;;
11034;SDS011;5571;48.110;-1.706;2023-05-07T11:37:20;4.68;;;3.67;;
11034;SDS011;5571;48.110;-1.706;2023-05-07T11:39:47;5.10;;;3.72;;
11034;SDS011;5571;48.110;-1.706;2023-05-07T11:42:27;3.80;;;3.40;;
11034;SDS011;5571;48.110;-1.706;2023-05-07T11:44:53;6.60;;;3.60;;
11034;SDS011;5571;48.110;-1.706;2023-05-07T11:47:19;3.70;;;3.17;;
11034;SDS011;5571;48.110;-1.706;2023-05-07T11:49:46;5.15;;;3.55;;
11034;SDS011;5571;48.110;-1.706;2023-05-07T11:52:18;5.10;;;3.03;;
11034;SDS011;5571;48.110;-1.706;2023-05-07T11:54:51;4.05;;;3.10;;
11034;SDS011;5571;48.110;-1.706;2023-05-07T11:57:24;4.63;;;3.20;;
11034;SDS011;5571;48.110;-1.706;2023-05-07T11:59:57;5.50;;;3.55;;
11034;SDS011;5571;48.110;-1.706;2023-05-07T12:02:23;7.80;;;3.42;;
11034;SDS011;5571;48.110;-1.706;2023-05-07T12:04:53;7.22;;;4.07;;
11034;SDS011;5571;48.110;-1.706;2023-05-07T12:07:19;6.78;;;3.97;;
11034;SDS011;5571;48.110;-1.706;2023-05-07T12:09:45;8.25;;;3.97;;
11034;SDS011;5571;48.110;-1.706;2023-05-07T12:12:12;6.20;;;3.67;;
11034;SDS011;5571;48.110;-1.706;2023-05-07T12:14:43;9.65;;;3.80;;
11034;SDS011;5571;48.110;-1.706;2023-05-07T12:17:11;7.07;;;4.05;;
11034;SDS011;5571;48.110;-1.706;2023-05-07T12:19:38;7.20;;;3.75;;
11034;SDS011;5571;48.110;-1.706;2023-05-07T12:22:09;5.90;;;3.63;;
11034;SDS011;5571;48.110;-1.706;2023-05-07T12:24:48;5.75;;;3.33;;
11034;SDS011;5571;48.110;-1.706;2023-05-07T12:27:21;5.90;;;3.65;;
11034;SDS011;5571;48.110;-1.706;2023-05-07T12:29:47;7.95;;;3.65;;
11034;SDS011;5571;48.110;-1.706;2023-05-07T12:32:17;7.40;;;3.15;;
11034;SDS011;5571;48.110;-1.706;2023-05-07T12:34:44;8.82;;;3.70;;
11034;SDS011;5571;48.110;-1.706;2023-05-07T12:37:11;6.43;;;3.50;;
11034;SDS011;5571;48.110;-1.706;2023-05-07T12:39:37;7.97;;;3.80;;
11034;SDS011;5571;48.110;-1.706;2023-05-07T12:42:19;7.10;;;3.58;;
11034;SDS011;5571;48.110;-1.706;2023-05-07T12:44:49;7.93;;;3.63;;
11034;SDS011;5571;48.110;-1.706;2023-05-07T12:47:15;8.35;;;3.38;;
11034;SDS011;5571;48.110;-1.706;2023-05-07T12:49:41;7.07;;;3.15;;
11034;SDS011;5571;48.110;-1.706;2023-05-07T12:52:07;6.78;;;3.47;;
11034;SDS011;5571;48.110;-1.706;2023-05-07T12:54:34;6.13;;;3.10;;
11034;SDS011;5571;48.110;-1.706;2023-05-07T12:59:38;8.80;;;3.00;;
11034;SDS011;5571;48.110;-1.706;2023-05-07T13:02:05;3.85;;;2.67;;
11034;SDS011;5571;48.110;-1.706;2023-05-07T13:04:31;5.63;;;3.17;;
11034;SDS011;5571;48.110;-1.706;2023-05-07T13:06:57;7.55;;;3.00;;
11034;SDS011;5571;48.110;-1.706;2023-05-07T13:09:24;4.88;;;3.08;;
11034;SDS011;5571;48.110;-1.706;2023-05-07T13:11:49;7.32;;;3.03;;
11034;SDS011;5571;48.110;-1.706;2023-05-07T13:14:15;6.10;;;2.90;;
11034;SDS011;5571;48.110;-1.706;2023-05-07T13:16:40;8.23;;;3.05;;
11034;SDS011;5571;48.110;-1.706;2023-05-07T13:19:06;4.38;;;2.42;;
11034;SDS011;5571;48.110;-1.706;2023-05-07T13:21:32;6.60;;;2.67;;
11034;SDS011;5571;48.110;-1.706;2023-05-07T13:23:57;5.95;;;2.90;;
11034;SDS011;5571;48.110;-1.706;2023-05-07T13:26:23;7.68;;;2.80;;
11034;SDS011;5571;48.110;-1.706;2023-05-07T13:28:49;4.13;;;2.63;;
11034;SDS011;5571;48.110;-1.706;2023-05-07T13:31:16;5.90;;;2.75;;
11034;SDS011;5571;48.110;-1.706;2023-05-07T13:33:42;4.53;;;2.50;;
11034;SDS011;5571;48.110;-1.706;2023-05-07T13:36:07;4.57;;;2.45;;
11034;SDS011;5571;48.110;-1.706;2023-05-07T13:38:34;3.50;;;2.10;;
11034;SDS011;5571;48.110;-1.706;2023-05-07T13:41:00;4.93;;;2.20;;
11034;SDS011;5571;48.110;-1.706;2023-05-07T13:43:25;5.03;;;1.70;;
11034;SDS011;5571;48.110;-1.706;2023-05-07T13:45:51;4.60;;;2.03;;
11034;SDS011;5571;48.110;-1.706;2023-05-07T13:48:16;2.38;;;1.77;;
11034;SDS011;5571;48.110;-1.706;2023-05-07T13:50:42;2.58;;;1.90;;
11034;SDS011;5571;48.110;-1.706;2023-05-07T13:53:08;5.13;;;2.10;;
11034;SDS011;5571;48.110;-1.706;2023-05-07T13:55:33;3.55;;;1.85;;
11034;SDS011;5571;48.110;-1.706;2023-05-07T13:58:00;2.10;;;1.90;;
11034;SDS011;5571;48.110;-1.706;2023-05-07T14:00:27;2.30;;;2.00;;
11034;SDS011;5571;48.110;-1.706;2023-05-07T14:02:54;4.88;;;2.15;;
11034;SDS011;5571;48.110;-1.706;2023-05-07T14:05:20;4.93;;;2.10;;
11034;SDS011;5571;48.110;-1.706;2023-05-07T14:07:48;4.03;;;1.88;;
11034;SDS011;5571;48.110;-1.706;2023-05-07T14:10:16;3.95;;;2.17;;
11034;SDS011;5571;48.110;-1.706;2023-05-07T14:12:43;6.07;;;2.42;;
11034;SDS011;5571;48.110;-1.706;2023-05-07T14:15:09;3.38;;;1.77;;
11034;SDS011;5571;48.110;-1.706;2023-05-07T14:17:35;3.03;;;1.95;;
11034;SDS011;5571;48.110;-1.706;2023-05-07T14:20:01;2.28;;;1.70;;
11034;SDS011;5571;48.110;-1.706;2023-05-07T14:22:27;3.92;;;2.17;;
11034;SDS011;5571;48.110;-1.706;2023-05-07T14:24:53;3.35;;;2.00;;
11034;SDS011;5571;48.110;-1.706;2023-05-07T14:27:18;3.38;;;1.70;;
11034;SDS011;5571;48.110;-1.706;2023-05-07T14:29:44;3.42;;;2.00;;
11034;SDS011;5571;48.110;-1.706;2023-05-07T14:32:10;4.00;;;2.00;;
11034;SDS011;5571;48.110;-1.706;2023-05-07T14:34:36;3.30;;;2.00;;
11034;SDS011;5571;48.110;-1.706;2023-05-07T14:37:02;5.60;;;2.40;;
11034;SDS011;5571;48.110;-1.706;2023-05-07T14:39:27;5.38;;;2.47;;
11034;SDS011;5571;48.110;-1.706;2023-05-07T14:41:53;5.22;;;2.20;;
11034;SDS011;5571;48.110;-1.706;2023-05-07T14:44:20;3.80;;;2.25;;
11034;SDS011;5571;48.110;-1.706;2023-05-07T14:46:46;5.35;;;3.70;;
11034;SDS011;5571;48.110;-1.706;2023-05-07T14:49:13;2.95;;;2.08;;
11034;SDS011;5571;48.110;-1.706;2023-05-07T14:51:42;3.40;;;2.10;;
11034;SDS011;5571;48.110;-1.706;2023-05-07T14:54:09;5.50;;;2.00;;
11034;SDS011;5571;48.110;-1.706;2023-05-07T14:56:35;4.05;;;2.28;;
11034;SDS011;5571;48.110;-1.706;2023-05-07T14:59:01;2.47;;;1.88;;
11034;SDS011;5571;48.110;-1.706;2023-05-07T15:01:28;3.35;;;1.92;;